Burlington Township, New Jersey
Current Conditions -  °F | °C
As of 11:54 PM on Saturday 20 Dec 2014 (Local Time) from KVAY Reporting Station
Overcast Overcast  
Wind Chill: 31°   Ceiling: 3100
Heat Index: 31°   Visibility: 10mi
Dew Point: 25°   Wind: 0mph
Humidity: 79%   Direction: NA
Pressure: 30.3"   Gusts: NA
Location:  40.0691°N, 74.8276°W
Report Text: KVAY 210454Z AUTO 00000KT 10SM OVC031 M01/M04 A3030 RMK AO2 SLP261 T10061039 400111022
Loading
Personal Weather Stations






























Interactive Weather Map New forecast layout! Learn more

10-Day Weather Forecast

Advertisements
Track Severe Weather on mobile